createdAt,value
2022-12-23T00:00:55.900Z,99536.31
2022-12-23T00:03:23.984Z,99531.31
2022-12-23T00:05:52.436Z,99525.31
2022-12-23T00:08:20.315Z,99526.13
2022-12-23T00:10:50.980Z,99513.66
2022-12-23T00:13:37.243Z,99508.06
2022-12-23T00:16:07.429Z,99515.75
2022-12-23T00:18:35.543Z,99516.56
2022-12-23T00:21:08.845Z,99525.69
2022-12-23T00:23:38.738Z,99520.28
2022-12-23T00:26:09.021Z,99511.78
2022-12-23T00:28:38.903Z,99502.47
2022-12-23T00:31:08.419Z,99514.50
2022-12-23T00:33:38.068Z,99516.16
2022-12-23T00:36:12.713Z,99513.47
2022-12-23T00:38:59.416Z,99516.75
2022-12-23T00:41:46.385Z,99504.13
2022-12-23T00:44:15.299Z,99505.38
2022-12-23T00:46:42.947Z,99499.31
2022-12-23T00:49:27.907Z,99500.75
2022-12-23T00:51:55.576Z,99494.91
2022-12-23T00:54:23.318Z,99495.09
2022-12-23T00:56:52.315Z,99492.63
2022-12-23T00:59:20.263Z,99495.94
2022-12-23T01:02:05.531Z,99494.69
2022-12-23T01:04:51.459Z,99491.34
2022-12-23T01:07:19.023Z,99493.00
2022-12-23T01:09:46.850Z,99496.13
2022-12-23T01:12:15.795Z,99498.84
2022-12-23T01:14:43.419Z,99501.75
2022-12-23T01:17:11.039Z,99502.00
2022-12-23T01:19:39.128Z,99505.13
2022-12-23T01:22:06.822Z,99504.72
2022-12-23T01:24:34.401Z,99505.56
2022-12-23T01:27:02.380Z,99503.28
2022-12-23T01:29:31.482Z,99503.72
2022-12-23T01:31:59.191Z,99514.75
2022-12-23T01:34:32.541Z,99513.06
2022-12-23T01:37:03.877Z,99514.91
2022-12-23T01:39:31.409Z,99526.31
2022-12-23T01:42:16.783Z,99524.03
2022-12-23T01:44:57.287Z,99524.25
2022-12-23T01:47:31.365Z,99514.28
2022-12-23T01:50:07.163Z,99526.53
2022-12-23T01:52:40.645Z,99520.31
2022-12-23T01:55:10.025Z,99530.03
2022-12-23T01:57:41.912Z,99525.84
2022-12-23T02:00:29.748Z,99514.66
2022-12-23T02:03:14.929Z,99511.53
2022-12-23T02:05:45.575Z,99522.09
2022-12-23T02:08:33.015Z,99517.72
2022-12-23T02:11:38.594Z,99532.44
2022-12-23T02:14:37.666Z,99532.41
2022-12-23T02:17:15.672Z,99539.47
2022-12-23T02:20:16.346Z,99541.50
2022-12-23T02:23:09.013Z,99541.06
2022-12-23T02:25:57.722Z,99547.72
2022-12-23T02:28:44.708Z,99547.50
2022-12-23T02:31:23.137Z,99552.47
2022-12-23T02:33:59.890Z,99543.09
2022-12-23T02:36:39.778Z,99554.31
2022-12-23T02:39:11.022Z,99554.66
2022-12-23T02:41:44.145Z,99558.22
2022-12-23T02:44:19.681Z,99564.22
2022-12-23T02:46:53.382Z,99562.13
2022-12-23T02:49:25.010Z,99548.41
2022-12-23T02:51:56.136Z,99547.97
2022-12-23T02:54:29.879Z,99553.19
2022-12-23T02:57:01.209Z,99555.03
2022-12-23T02:59:33.117Z,99556.91
2022-12-23T03:02:02.182Z,99560.44
2022-12-23T03:04:29.940Z,99565.41
2022-12-23T03:07:01.705Z,99566.00
2022-12-23T03:09:43.463Z,99561.66
2022-12-23T03:12:25.780Z,99555.22
2022-12-23T03:15:14.838Z,99561.44
2022-12-23T03:17:54.893Z,99559.78
2022-12-23T03:20:28.591Z,99562.28
2022-12-23T03:23:04.830Z,99562.28
2022-12-23T03:25:37.027Z,99557.91
2022-12-23T03:28:11.590Z,99566.63
2022-12-23T03:30:44.441Z,99562.88
2022-12-23T03:33:18.518Z,99556.88
2022-12-23T03:35:52.505Z,99558.94
2022-12-23T03:38:20.313Z,99568.28
2022-12-23T03:40:53.056Z,99567.84
2022-12-23T03:43:25.648Z,99574.06
2022-12-23T03:45:58.166Z,99575.34
2022-12-23T03:48:32.324Z,99584.06
2022-12-23T03:51:03.810Z,99580.31
2022-12-23T03:53:35.337Z,99582.81
2022-12-23T03:56:07.746Z,99586.31
2022-12-23T03:58:40.475Z,99585.06
2022-12-23T04:01:23.266Z,99588.81
2022-12-23T04:03:58.303Z,99597.34
2022-12-23T04:06:32.965Z,99588.44
2022-12-23T04:09:02.797Z,99593.59
2022-12-23T04:11:30.722Z,99594.19
2022-12-23T04:13:58.332Z,99603.75
2022-12-23T04:16:26.257Z,99601.66
2022-12-23T04:18:55.189Z,99601.03
2022-12-23T04:21:22.765Z,99600.44
2022-12-23T04:23:50.311Z,99612.69
2022-12-23T04:26:17.900Z,99617.25
2022-12-23T04:28:45.500Z,99613.50
2022-12-23T04:31:13.097Z,99619.41
2022-12-23T04:33:40.655Z,99619.00
2022-12-23T04:36:09.602Z,99615.28
2022-12-23T04:38:37.203Z,99620.06
2022-12-23T04:41:05.099Z,99625.69
2022-12-23T04:43:32.685Z,99631.53
2022-12-23T04:46:00.276Z,99633.56
2022-12-23T04:48:27.986Z,99631.53
2022-12-23T04:50:55.614Z,99638.16
2022-12-23T04:53:24.544Z,99635.69
2022-12-23T04:55:52.742Z,99642.34
2022-12-23T04:58:21.998Z,99636.53
2022-12-23T05:00:49.752Z,99640.44
2022-12-23T05:03:17.509Z,99640.22
2022-12-23T05:05:45.550Z,99641.53
2022-12-23T05:08:13.367Z,99650.25
2022-12-23T05:10:42.302Z,99654.19
2022-12-23T05:13:09.879Z,99658.16
2022-12-23T05:15:37.460Z,99654.84
2022-12-23T05:18:05.469Z,99656.50
2022-12-23T05:20:33.070Z,99671.66
2022-12-23T05:23:00.725Z,99669.38
2022-12-23T05:25:28.297Z,99670.44
2022-12-23T05:27:57.181Z,99677.06
2022-12-23T05:30:24.754Z,99682.28
2022-12-23T05:32:53.871Z,99682.06
2022-12-23T05:35:21.529Z,99681.66
2022-12-23T05:37:49.291Z,99689.94
2022-12-23T05:40:21.543Z,99694.09
2022-12-23T05:42:52.362Z,99690.16
2022-12-23T05:45:21.344Z,99697.81
2022-12-23T05:47:48.967Z,99694.94
2022-12-23T05:50:16.657Z,99702.84
2022-12-23T05:52:44.277Z,99706.34
2022-12-23T05:55:11.838Z,99709.88
2022-12-23T05:57:39.523Z,99706.81
2022-12-23T06:00:08.468Z,99713.22
2022-12-23T06:02:37.556Z,99720.69
2022-12-23T06:05:05.987Z,99723.59
2022-12-23T06:07:33.651Z,99716.13
2022-12-23T06:10:01.275Z,99717.56
2022-12-23T06:12:28.914Z,99731.84
2022-12-23T06:14:56.560Z,99731.03
2022-12-23T06:17:24.237Z,99735.41
2022-12-23T06:19:53.213Z,99731.84
2022-12-23T06:22:21.712Z,99741.19
2022-12-23T06:24:49.290Z,99735.38
2022-12-23T06:27:17.115Z,99727.47
2022-12-23T06:29:44.782Z,99740.59
2022-12-23T06:32:12.599Z,99743.28
2022-12-23T06:34:40.794Z,99742.47
2022-12-23T06:37:09.763Z,99741.66
2022-12-23T06:39:37.582Z,99750.19
2022-12-23T06:42:05.220Z,99755.38
2022-12-23T06:44:32.805Z,99754.13
2022-12-23T06:47:00.403Z,99766.56
2022-12-23T06:49:28.057Z,99768.22
2022-12-23T06:51:55.755Z,99775.09
2022-12-23T06:54:24.767Z,99781.31
2022-12-23T06:56:52.411Z,99783.22
2022-12-23T06:59:20.050Z,99787.16
2022-12-23T07:01:47.705Z,99797.94
2022-12-23T07:04:15.503Z,99797.34
2022-12-23T07:06:43.234Z,99800.66
2022-12-23T07:09:12.189Z,99802.72
2022-12-23T07:11:41.045Z,99797.50
2022-12-23T07:14:08.638Z,99803.56
2022-12-23T07:16:36.321Z,99803.56
2022-12-23T07:19:04.257Z,99801.06
2022-12-23T07:21:31.817Z,99809.75
2022-12-23T07:23:59.427Z,99818.09
2022-12-23T07:26:27.028Z,99809.38
2022-12-23T07:28:55.938Z,99797.34
2022-12-23T07:31:23.827Z,99807.28
2022-12-23T07:33:51.773Z,99810.63
2022-12-23T07:36:19.384Z,99823.28
2022-12-23T07:38:50.391Z,99824.34
2022-12-23T07:41:18.129Z,99821.81
2022-12-23T07:43:45.882Z,99826.63
2022-12-23T07:46:15.122Z,99833.69
2022-12-23T07:48:42.853Z,99840.13
2022-12-23T07:51:10.672Z,99850.91
2022-12-23T07:53:38.440Z,99855.47
2022-12-23T07:56:07.066Z,99851.94
2022-12-23T07:58:34.803Z,99857.34
2022-12-23T08:01:03.447Z,99850.69
2022-12-23T08:03:32.870Z,99849.66
2022-12-23T08:06:02.374Z,99847.19
2022-12-23T08:08:30.264Z,99857.78
2022-12-23T08:11:00.157Z,99861.94
2022-12-23T08:13:28.014Z,99860.47
2022-12-23T08:15:57.047Z,99861.88
2022-12-23T08:18:25.526Z,99857.94
2022-12-23T08:20:58.567Z,99861.66
2022-12-23T08:23:27.424Z,99868.53
2022-12-23T08:26:05.224Z,99862.31
2022-12-23T08:28:34.387Z,99879.50
2022-12-23T08:31:06.901Z,99883.06
2022-12-23T08:33:35.050Z,99891.56
2022-12-23T08:36:04.979Z,99893.03
2022-12-23T08:38:33.167Z,99894.47
2022-12-23T08:41:00.899Z,99896.56
2022-12-23T08:43:35.211Z,99889.91
2022-12-23T08:46:04.051Z,99892.41
2022-12-23T08:48:31.770Z,99900.91
2022-12-23T08:51:05.746Z,99893.66
2022-12-23T08:53:33.539Z,99891.16
2022-12-23T08:56:03.749Z,99900.31
2022-12-23T08:58:31.952Z,99899.88
2022-12-23T09:01:04.230Z,99899.91
2022-12-23T09:03:31.870Z,99915.06
2022-12-23T09:05:59.555Z,99923.16
2022-12-23T09:08:28.569Z,99905.13
2022-12-23T09:10:56.277Z,99899.06
2022-12-23T09:13:32.770Z,99904.06
2022-12-23T09:16:02.692Z,99908.22
2022-12-23T09:18:30.354Z,99897.22
2022-12-23T09:20:59.330Z,99900.53
2022-12-23T09:23:28.701Z,99906.16
2022-12-23T09:25:57.007Z,99901.56
2022-12-23T09:28:25.899Z,99889.53
2022-12-23T09:30:53.910Z,99896.59
2022-12-23T09:33:21.767Z,99896.59
2022-12-23T09:35:49.390Z,99897.22
2022-12-23T09:38:17.090Z,99904.09
2022-12-23T09:40:46.620Z,99899.50
2022-12-23T09:43:26.748Z,99908.63
2022-12-23T09:46:07.151Z,99924.41
2022-12-23T09:48:39.650Z,99921.09
2022-12-23T09:51:07.995Z,99920.66
2022-12-23T09:53:46.468Z,99921.91
2022-12-23T09:56:21.590Z,99926.91
2022-12-23T09:58:56.018Z,99913.81
2022-12-23T10:01:30.525Z,99919.22
2022-12-23T10:04:34.167Z,99920.69
2022-12-23T10:07:16.772Z,99921.31
2022-12-23T10:09:46.984Z,99920.69
2022-12-23T10:12:27.449Z,99921.53
2022-12-23T10:14:59.660Z,99917.38
2022-12-23T10:17:34.085Z,99909.06
2022-12-23T10:20:05.254Z,99908.63
2022-12-23T10:22:38.140Z,99910.31
2022-12-23T10:25:14.890Z,99919.22
2022-12-23T10:27:44.870Z,99919.22
2022-12-23T10:30:42.703Z,99925.25
2022-12-23T10:33:10.249Z,99919.22
2022-12-23T10:35:47.102Z,99925.25
2022-12-23T10:38:28.080Z,99923.59
2022-12-23T10:41:06.986Z,99921.09
2022-12-23T10:43:53.047Z,99918.41
2022-12-23T10:46:29.300Z,99915.28
2022-12-23T10:49:04.458Z,99915.72
2022-12-23T10:51:39.038Z,99905.34
2022-12-23T10:54:11.176Z,99890.78
2022-12-23T10:56:39.282Z,99896.16
2022-12-23T10:59:14.541Z,99877.91
2022-12-23T11:01:47.633Z,99881.84
2022-12-23T11:04:21.005Z,99877.47
2022-12-23T11:07:18.313Z,99880.59
2022-12-23T11:09:44.990Z,99870.41
2022-12-23T11:12:13.959Z,99869.16
2022-12-23T11:14:51.161Z,99878.72
2022-12-23T11:17:25.195Z,99883.69
2022-12-23T11:20:12.671Z,99879.16
2022-12-23T11:22:49.088Z,99877.47
2022-12-23T11:25:28.995Z,99887.47
2022-12-23T11:28:03.118Z,99883.31
2022-12-23T11:30:33.759Z,99879.97
2022-12-23T11:33:01.518Z,99877.47
2022-12-23T11:35:31.796Z,99877.47
2022-12-23T11:38:01.868Z,99879.78
2022-12-23T11:40:31.598Z,99876.03
2022-12-23T11:43:01.893Z,99869.38
2022-12-23T11:45:34.304Z,99874.19
2022-12-23T11:48:03.301Z,99866.25
2022-12-23T11:50:34.458Z,99871.28
2022-12-23T11:53:11.004Z,99866.47
2022-12-23T11:55:44.876Z,99872.50
2022-12-23T11:58:19.125Z,99879.75
2022-12-23T12:00:56.161Z,99872.09
2022-12-23T12:03:28.758Z,99874.19
2022-12-23T12:05:59.987Z,99866.06
2022-12-23T12:08:31.606Z,99862.94
2022-12-23T12:11:07.035Z,99861.50
2022-12-23T12:13:39.309Z,99854.44
2022-12-23T12:16:18.907Z,99839.28
2022-12-23T12:18:53.772Z,99831.59
2022-12-23T12:21:29.482Z,99821.41
2022-12-23T12:24:17.792Z,99813.31
2022-12-23T12:26:51.674Z,99813.06
2022-12-23T12:29:29.044Z,99805.19
2022-12-23T12:32:00.162Z,99807.06
2022-12-23T12:34:42.979Z,99803.97
2022-12-23T12:37:20.981Z,99798.13
2022-12-23T12:39:55.056Z,99795.63
2022-12-23T12:42:35.364Z,99785.44
2022-12-23T12:45:18.985Z,99784.63
2022-12-23T12:48:06.976Z,99783.59
2022-12-23T12:50:49.958Z,99774.47
2022-12-23T12:53:21.442Z,99769.88
2022-12-23T12:55:53.178Z,99761.16
2022-12-23T12:58:23.324Z,99752.41
2022-12-23T13:01:00.060Z,99761.75
2022-12-23T13:03:54.514Z,99764.91
2022-12-23T13:06:27.405Z,99759.50
2022-12-23T13:09:04.719Z,99751.41
2022-12-23T13:11:44.874Z,99745.59
2022-12-23T13:14:25.800Z,99750.78
2022-12-23T13:17:02.076Z,99746.22
2022-12-23T13:19:39.293Z,99747.47
2022-12-23T13:22:09.999Z,99744.59
2022-12-23T13:24:50.518Z,99751.63
2022-12-23T13:27:21.353Z,99749.34
2022-12-23T13:30:04.378Z,99751.63
2022-12-23T13:32:47.254Z,99751.63
2022-12-23T13:35:33.597Z,99757.00
2022-12-23T13:38:12.369Z,99754.13
2022-12-23T13:40:48.288Z,99752.03
2022-12-23T13:43:21.424Z,99743.97
2022-12-23T13:45:52.473Z,99734.44
2022-12-23T13:48:34.152Z,99733.63
2022-12-23T13:51:08.874Z,99738.38
2022-12-23T13:53:48.930Z,99738.38
2022-12-23T13:56:24.985Z,99751.66
2022-12-23T13:58:52.774Z,99742.75
2022-12-23T14:01:31.500Z,99736.72
2022-12-23T14:04:33.693Z,99721.97
2022-12-23T14:07:03.872Z,99727.59
2022-12-23T14:09:35.516Z,99720.13
2022-12-23T14:12:13.816Z,99708.91
2022-12-23T14:14:53.134Z,99718.44
2022-12-23T14:17:30.000Z,99719.69
2022-12-23T14:20:09.518Z,99709.72
2022-12-23T14:22:47.296Z,99708.47
2022-12-23T14:25:34.087Z,99702.69
2022-12-23T14:28:11.563Z,99699.78
2022-12-23T14:30:41.192Z,99705.56
2022-12-23T14:33:16.874Z,99697.88
2022-12-23T14:35:54.611Z,99694.13
2022-12-23T14:38:30.878Z,99680.88
2022-12-23T14:41:01.560Z,99686.06
2022-12-23T14:43:50.959Z,99685.03
2022-12-23T14:46:46.339Z,99685.44
2022-12-23T14:49:39.632Z,99681.72
2022-12-23T14:52:47.787Z,99680.28
2022-12-23T14:55:56.126Z,99680.28
2022-12-23T14:58:52.633Z,99682.56
2022-12-23T15:01:23.481Z,99677.41
2022-12-23T15:03:59.273Z,99671.19
2022-12-23T15:06:36.033Z,99670.34
2022-12-23T15:09:07.312Z,99672.44
2022-12-23T15:11:37.383Z,99663.28
2022-12-23T15:14:10.249Z,99657.47
2022-12-23T15:16:40.318Z,99660.16
2022-12-23T15:19:19.094Z,99646.47
2022-12-23T15:21:52.022Z,99651.47
2022-12-23T15:24:27.250Z,99638.19
2022-12-23T15:27:25.486Z,99637.13
2022-12-23T15:29:48.222Z,99634.44
2022-12-23T15:32:16.515Z,99624.69
2022-12-23T15:34:44.864Z,99618.88
2022-12-23T15:37:13.702Z,99613.91
2022-12-23T15:39:44.943Z,99612.66
2022-12-23T15:42:22.432Z,99610.56
2022-12-23T15:44:50.033Z,99609.53
2022-12-23T15:47:25.968Z,99613.50
2022-12-23T15:49:53.591Z,99616.59
2022-12-23T15:52:21.555Z,99610.97
2022-12-23T15:54:58.459Z,99605.00
2022-12-23T15:57:28.993Z,99607.28
2022-12-23T15:59:58.164Z,99600.84
2022-12-23T16:02:59.870Z,99602.91
2022-12-23T16:05:27.295Z,99593.59
2022-12-23T16:08:11.017Z,99597.50
2022-12-23T16:10:40.955Z,99602.47
2022-12-23T16:13:17.763Z,99603.94
2022-12-23T16:15:45.956Z,99596.50
2022-12-23T16:18:14.983Z,99598.16
2022-12-23T16:20:45.195Z,99599.38
2022-12-23T16:23:14.229Z,99590.25
2022-12-23T16:25:50.617Z,99589.41
2022-12-23T16:28:24.097Z,99587.38
2022-12-23T16:30:54.273Z,99577.84
2022-12-23T16:33:35.074Z,99566.22
2022-12-23T16:36:17.011Z,99555.00
2022-12-23T16:38:45.107Z,99563.91
2022-12-23T16:41:14.104Z,99557.91
2022-12-23T16:43:51.290Z,99556.25
2022-12-23T16:46:22.316Z,99556.25
2022-12-23T16:48:51.768Z,99559.16
2022-12-23T16:51:21.993Z,99555.63
2022-12-23T16:53:49.960Z,99555.41
2022-12-23T16:56:21.506Z,99562.44
2022-12-23T16:58:49.537Z,99560.78
2022-12-23T17:01:22.710Z,99559.16
2022-12-23T17:03:50.535Z,99551.47
2022-12-23T17:06:21.062Z,99552.47
2022-12-23T17:08:49.301Z,99545.69
2022-12-23T17:11:20.248Z,99546.69
2022-12-23T17:13:48.390Z,99537.34
2022-12-23T17:16:19.823Z,99535.50
2022-12-23T17:18:48.334Z,99530.09
2022-12-23T17:21:22.475Z,99526.78
2022-12-23T17:23:51.830Z,99525.13
2022-12-23T17:26:21.823Z,99527.19
2022-12-23T17:28:50.280Z,99517.66
2022-12-23T17:31:26.339Z,99508.31
2022-12-23T17:33:55.059Z,99509.16
2022-12-23T17:36:22.918Z,99509.56
2022-12-23T17:38:50.618Z,99497.53
2022-12-23T17:41:25.873Z,99497.34
2022-12-23T17:43:53.863Z,99493.19
2022-12-23T17:46:22.085Z,99497.16
2022-12-23T17:48:50.076Z,99498.63
2022-12-23T17:51:19.846Z,99483.47
2022-12-23T17:53:53.192Z,99490.13
2022-12-23T17:56:29.056Z,99484.13
2022-12-23T17:58:56.807Z,99477.25
2022-12-23T18:01:27.897Z,99474.53
2022-12-23T18:03:56.902Z,99465.38
2022-12-23T18:06:26.907Z,99462.47
2022-12-23T18:08:56.758Z,99449.84
2022-12-23T18:11:34.672Z,99460.81
2022-12-23T18:14:04.217Z,99462.47
2022-12-23T18:16:32.169Z,99463.16
2022-12-23T18:19:00.018Z,99457.13
2022-12-23T18:21:29.882Z,99443.19
2022-12-23T18:24:00.559Z,99449.28
2022-12-23T18:26:29.690Z,99445.91
2022-12-23T18:28:57.724Z,99441.34
2022-12-23T18:31:27.375Z,99440.06
2022-12-23T18:33:55.764Z,99446.28
2022-12-23T18:36:25.462Z,99448.13
2022-12-23T18:38:53.749Z,99443.53
2022-12-23T18:41:22.414Z,99438.81
2022-12-23T18:43:52.763Z,99438.81
2022-12-23T18:46:21.424Z,99443.34
2022-12-23T18:48:49.776Z,99435.72
2022-12-23T18:51:20.452Z,99431.94
2022-12-23T18:53:49.978Z,99431.09
2022-12-23T18:56:21.188Z,99424.59
2022-12-23T18:58:51.598Z,99428.53
2022-12-23T19:01:20.065Z,99429.34
2022-12-23T19:03:48.326Z,99435.34
2022-12-23T19:06:16.810Z,99435.53
2022-12-23T19:08:45.513Z,99436.66
2022-12-23T19:11:18.682Z,99429.16
2022-12-23T19:13:47.098Z,99435.00
2022-12-23T19:16:19.110Z,99432.16
2022-12-23T19:18:48.034Z,99428.28
2022-12-23T19:21:16.767Z,99430.56
2022-12-23T19:23:44.839Z,99429.28
2022-12-23T19:26:15.537Z,99422.25
2022-12-23T19:28:44.718Z,99423.28
2022-12-23T19:31:23.175Z,99424.75
2022-12-23T19:33:52.091Z,99419.75
2022-12-23T19:36:25.481Z,99442.53
2022-12-23T19:38:58.597Z,99424.06
2022-12-23T19:41:30.922Z,99431.31
2022-12-23T19:44:00.119Z,99427.19
2022-12-23T19:46:31.671Z,99435.28
2022-12-23T19:49:02.813Z,99437.97
2022-12-23T19:51:31.073Z,99442.94
2022-12-23T19:53:59.000Z,99442.91
2022-12-23T19:56:30.420Z,99438.13
2022-12-23T19:58:58.268Z,99442.50
2022-12-23T20:01:30.231Z,99445.44
2022-12-23T20:04:00.963Z,99445.00
2022-12-23T20:06:33.130Z,99447.88
2022-12-23T20:09:04.920Z,99458.88
2022-12-23T20:11:34.937Z,99451.03
2022-12-23T20:14:03.573Z,99462.66
2022-12-23T20:16:31.857Z,99465.31
2022-12-23T20:19:02.520Z,99455.75
2022-12-23T20:21:32.482Z,99450.75
2022-12-23T20:24:01.257Z,99446.91
2022-12-23T20:26:29.243Z,99458.28
2022-12-23T20:28:57.929Z,99462.06
2022-12-23T20:31:27.689Z,99458.25
2022-12-23T20:33:57.006Z,99460.31
2022-12-23T20:36:30.266Z,99459.28
2022-12-23T20:38:58.403Z,99471.31
2022-12-23T20:41:28.394Z,99475.84
2022-12-23T20:44:32.310Z,99464.88
2022-12-23T20:46:44.146Z,99463.63
2022-12-23T20:49:11.950Z,99460.06
2022-12-23T20:51:41.001Z,99473.78
2022-12-23T20:54:09.260Z,99476.91
2022-12-23T20:56:36.854Z,99475.47
2022-12-23T20:59:05.803Z,99476.91
2022-12-23T21:01:35.969Z,99473.56
2022-12-23T21:04:05.671Z,99474.63
2022-12-23T21:06:34.616Z,99481.47
2022-12-23T21:09:05.736Z,99491.22
2022-12-23T21:11:42.817Z,99493.50
2022-12-23T21:14:11.562Z,99492.72
2022-12-23T21:16:40.708Z,99492.53
2022-12-23T21:19:17.652Z,99499.16
2022-12-23T21:21:46.807Z,99498.31
2022-12-23T21:24:16.761Z,99498.91
2022-12-23T21:26:49.060Z,99500.78
2022-12-23T21:29:22.253Z,99507.66
2022-12-23T21:31:50.331Z,99507.44
2022-12-23T21:34:21.880Z,99518.88
2022-12-23T21:36:49.599Z,99520.53
2022-12-23T21:39:20.085Z,99524.91
2022-12-23T21:41:50.875Z,99529.28
2022-12-23T21:44:18.941Z,99526.97
2022-12-23T21:46:47.084Z,99535.06
2022-12-23T21:49:15.036Z,99547.09
2022-12-23T21:51:42.688Z,99544.22
2022-12-23T21:54:10.895Z,99555.00
2022-12-23T21:56:41.891Z,99546.28
2022-12-23T21:59:13.641Z,99545.84
2022-12-23T22:01:41.801Z,99547.31
2022-12-23T22:04:09.877Z,99552.09
2022-12-23T22:06:41.383Z,99556.25
2022-12-23T22:09:09.304Z,99558.09
2022-12-23T22:11:38.401Z,99565.56
2022-12-23T22:14:09.064Z,99568.72
2022-12-23T22:16:37.756Z,99572.81
2022-12-23T22:19:08.589Z,99568.69
2022-12-23T22:21:37.369Z,99566.59
2022-12-23T22:24:06.170Z,99577.78
2022-12-23T22:26:35.318Z,99576.09
2022-12-23T22:29:05.881Z,99586.06
2022-12-23T22:31:40.390Z,99591.44
2022-12-23T22:34:09.862Z,99589.34
2022-12-23T22:36:40.921Z,99593.69
2022-12-23T22:39:16.066Z,99602.19
2022-12-23T22:41:49.181Z,99595.13
2022-12-23T22:44:17.333Z,99597.22
2022-12-23T22:46:46.868Z,99599.97
2022-12-23T22:49:18.041Z,99605.75
2022-12-23T22:51:46.552Z,99598.50
2022-12-23T22:54:14.637Z,99607.22
2022-12-23T22:56:47.049Z,99616.00
2022-12-23T22:59:22.148Z,99621.56
2022-12-23T23:01:53.000Z,99618.25
2022-12-23T23:04:22.291Z,99617.59
2022-12-23T23:06:49.937Z,99613.44
2022-12-23T23:09:23.979Z,99617.22
2022-12-23T23:11:51.949Z,99612.03
2022-12-23T23:14:20.558Z,99627.38
2022-12-23T23:16:48.272Z,99626.75
2022-12-23T23:19:22.805Z,99624.47
2022-12-23T23:21:53.293Z,99635.50
2022-12-23T23:24:25.166Z,99632.16
2022-12-23T23:26:57.066Z,99644.22
2022-12-23T23:29:24.798Z,99646.50
2022-12-23T23:31:52.378Z,99642.97
2022-12-23T23:34:27.700Z,99641.69
2022-12-23T23:36:59.178Z,99634.44
2022-12-23T23:39:31.525Z,99628.66
2022-12-23T23:41:59.164Z,99631.34
2022-12-23T23:44:28.189Z,99641.28
2022-12-23T23:46:57.515Z,99636.72
2022-12-23T23:49:36.810Z,99657.47
2022-12-23T23:52:09.792Z,99655.63
2022-12-23T23:54:38.717Z,99661.00
2022-12-23T23:57:06.367Z,99663.91
2022-12-23T23:59:33.922Z,99663.09
